sensor_id;sensor_type;location;lat;lon;timestamp;pressure;altitude;pressure_sealevel;temperature;humidity
50011;BME280;35899;50.352;19.390;2024-03-25T00:01:14;96367.52;;;2.80;100.00
50011;BME280;35899;50.352;19.390;2024-03-25T00:03:45;96370.40;;;2.78;100.00
50011;BME280;35899;50.352;19.390;2024-03-25T00:06:12;96368.91;;;2.74;100.00
50011;BME280;35899;50.352;19.390;2024-03-25T00:08:40;96367.30;;;2.70;100.00
50011;BME280;35899;50.352;19.390;2024-03-25T00:11:08;96370.04;;;2.67;100.00
50011;BME280;35899;50.352;19.390;2024-03-25T00:13:35;96370.80;;;2.66;100.00
50011;BME280;35899;50.352;19.390;2024-03-25T00:16:03;96371.39;;;2.65;100.00
50011;BME280;35899;50.352;19.390;2024-03-25T00:18:31;96368.06;;;2.64;100.00
50011;BME280;35899;50.352;19.390;2024-03-25T00:20:59;96368.30;;;2.62;100.00
50011;BME280;35899;50.352;19.390;2024-03-25T00:23:27;96361.23;;;2.61;100.00
50011;BME280;35899;50.352;19.390;2024-03-25T00:25:54;96360.92;;;2.60;100.00
50011;BME280;35899;50.352;19.390;2024-03-25T00:28:22;96358.98;;;2.59;100.00
50011;BME280;35899;50.352;19.390;2024-03-25T00:30:50;96356.58;;;2.56;100.00
50011;BME280;35899;50.352;19.390;2024-03-25T00:33:17;96356.38;;;2.54;100.00
50011;BME280;35899;50.352;19.390;2024-03-25T00:35:45;96359.77;;;2.51;100.00
50011;BME280;35899;50.352;19.390;2024-03-25T00:38:13;96362.11;;;2.49;100.00
50011;BME280;35899;50.352;19.390;2024-03-25T00:40:40;96359.19;;;2.47;100.00
50011;BME280;35899;50.352;19.390;2024-03-25T00:43:08;96357.40;;;2.46;100.00
50011;BME280;35899;50.352;19.390;2024-03-25T00:45:35;96352.63;;;2.43;100.00
50011;BME280;35899;50.352;19.390;2024-03-25T00:48:03;96351.81;;;2.40;100.00
50011;BME280;35899;50.352;19.390;2024-03-25T00:50:31;96351.38;;;2.36;100.00
50011;BME280;35899;50.352;19.390;2024-03-25T00:52:59;96347.80;;;2.30;100.00
50011;BME280;35899;50.352;19.390;2024-03-25T00:55:27;96352.36;;;2.25;100.00
50011;BME280;35899;50.352;19.390;2024-03-25T00:57:55;96348.58;;;2.25;100.00
50011;BME280;35899;50.352;19.390;2024-03-25T01:00:22;96352.37;;;2.27;100.00
50011;BME280;35899;50.352;19.390;2024-03-25T01:02:50;96349.34;;;2.30;100.00
50011;BME280;35899;50.352;19.390;2024-03-25T01:05:18;96347.96;;;2.33;100.00
50011;BME280;35899;50.352;19.390;2024-03-25T01:07:45;96349.60;;;2.37;100.00
50011;BME280;35899;50.352;19.390;2024-03-25T01:10:13;96347.57;;;2.39;100.00
50011;BME280;35899;50.352;19.390;2024-03-25T01:12:40;96343.00;;;2.41;100.00
50011;BME280;35899;50.352;19.390;2024-03-25T01:15:08;96341.80;;;2.44;100.00
50011;BME280;35899;50.352;19.390;2024-03-25T01:17:36;96340.91;;;2.45;100.00
50011;BME280;35899;50.352;19.390;2024-03-25T01:20:04;96342.80;;;2.47;100.00
50011;BME280;35899;50.352;19.390;2024-03-25T01:22:32;96341.86;;;2.48;100.00
50011;BME280;35899;50.352;19.390;2024-03-25T01:24:59;96338.76;;;2.49;100.00
50011;BME280;35899;50.352;19.390;2024-03-25T01:27:27;96337.34;;;2.50;100.00
50011;BME280;35899;50.352;19.390;2024-03-25T01:29:55;96336.08;;;2.51;100.00
50011;BME280;35899;50.352;19.390;2024-03-25T01:32:22;96337.07;;;2.51;100.00
50011;BME280;35899;50.352;19.390;2024-03-25T01:34:50;96336.85;;;2.52;100.00
50011;BME280;35899;50.352;19.390;2024-03-25T01:37:18;96335.31;;;2.52;100.00
50011;BME280;35899;50.352;19.390;2024-03-25T01:39:45;96335.52;;;2.51;100.00
50011;BME280;35899;50.352;19.390;2024-03-25T01:42:13;96335.09;;;2.50;100.00
50011;BME280;35899;50.352;19.390;2024-03-25T01:44:41;96332.52;;;2.48;100.00
50011;BME280;35899;50.352;19.390;2024-03-25T01:47:09;96332.45;;;2.46;100.00
50011;BME280;35899;50.352;19.390;2024-03-25T01:49:37;96333.20;;;2.45;100.00
50011;BME280;35899;50.352;19.390;2024-03-25T01:52:05;96334.14;;;2.44;100.00
50011;BME280;35899;50.352;19.390;2024-03-25T01:54:41;96328.94;;;2.42;100.00
50011;BME280;35899;50.352;19.390;2024-03-25T01:57:09;96329.88;;;2.41;100.00
50011;BME280;35899;50.352;19.390;2024-03-25T01:59:37;96328.94;;;2.40;100.00
50011;BME280;35899;50.352;19.390;2024-03-25T02:02:05;96330.99;;;2.37;100.00
50011;BME280;35899;50.352;19.390;2024-03-25T02:04:33;96326.57;;;2.33;100.00
50011;BME280;35899;50.352;19.390;2024-03-25T02:07:02;96324.54;;;2.30;100.00
50011;BME280;35899;50.352;19.390;2024-03-25T02:09:30;96323.06;;;2.27;100.00
50011;BME280;35899;50.352;19.390;2024-03-25T02:11:58;96320.17;;;2.24;100.00
50011;BME280;35899;50.352;19.390;2024-03-25T02:14:25;96318.67;;;2.21;100.00
50011;BME280;35899;50.352;19.390;2024-03-25T02:16:53;96316.60;;;2.19;100.00
50011;BME280;35899;50.352;19.390;2024-03-25T02:19:21;96318.55;;;2.17;100.00
50011;BME280;35899;50.352;19.390;2024-03-25T02:21:51;96318.75;;;2.17;100.00
50011;BME280;35899;50.352;19.390;2024-03-25T02:24:19;96322.88;;;2.16;100.00
50011;BME280;35899;50.352;19.390;2024-03-25T02:26:48;96326.33;;;2.15;100.00
50011;BME280;35899;50.352;19.390;2024-03-25T02:29:15;96328.84;;;2.13;100.00
50011;BME280;35899;50.352;19.390;2024-03-25T02:31:43;96330.74;;;2.10;100.00
50011;BME280;35899;50.352;19.390;2024-03-25T02:34:11;96328.54;;;2.05;100.00
50011;BME280;35899;50.352;19.390;2024-03-25T02:36:38;96324.59;;;1.99;100.00
50011;BME280;35899;50.352;19.390;2024-03-25T02:39:06;96329.77;;;1.92;100.00
50011;BME280;35899;50.352;19.390;2024-03-25T02:41:34;96332.11;;;1.88;100.00
50011;BME280;35899;50.352;19.390;2024-03-25T02:44:01;96328.69;;;1.83;100.00
50011;BME280;35899;50.352;19.390;2024-03-25T02:46:29;96330.42;;;1.79;100.00
50011;BME280;35899;50.352;19.390;2024-03-25T02:48:57;96330.38;;;1.77;100.00
50011;BME280;35899;50.352;19.390;2024-03-25T02:51:24;96335.04;;;1.76;100.00
50011;BME280;35899;50.352;19.390;2024-03-25T02:53:52;96336.44;;;1.75;100.00
50011;BME280;35899;50.352;19.390;2024-03-25T02:56:20;96337.35;;;1.74;100.00
50011;BME280;35899;50.352;19.390;2024-03-25T02:58:47;96337.00;;;1.74;100.00
50011;BME280;35899;50.352;19.390;2024-03-25T03:01:16;96331.77;;;1.76;100.00
50011;BME280;35899;50.352;19.390;2024-03-25T03:03:50;96334.86;;;1.79;100.00
50011;BME280;35899;50.352;19.390;2024-03-25T03:06:17;96336.20;;;1.82;100.00
50011;BME280;35899;50.352;19.390;2024-03-25T03:08:45;96335.48;;;1.86;100.00
50011;BME280;35899;50.352;19.390;2024-03-25T03:11:12;96333.05;;;1.89;100.00
50011;BME280;35899;50.352;19.390;2024-03-25T03:13:40;96330.85;;;1.92;100.00
50011;BME280;35899;50.352;19.390;2024-03-25T03:16:08;96329.92;;;1.93;100.00
50011;BME280;35899;50.352;19.390;2024-03-25T03:18:35;96326.77;;;1.94;100.00
50011;BME280;35899;50.352;19.390;2024-03-25T03:21:03;96329.54;;;1.97;100.00
50011;BME280;35899;50.352;19.390;2024-03-25T03:23:31;96336.20;;;1.99;100.00
50011;BME280;35899;50.352;19.390;2024-03-25T03:25:59;96332.69;;;2.01;100.00
50011;BME280;35899;50.352;19.390;2024-03-25T03:28:26;96335.46;;;2.03;100.00
50011;BME280;35899;50.352;19.390;2024-03-25T03:30:54;96336.52;;;2.05;100.00
50011;BME280;35899;50.352;19.390;2024-03-25T03:33:22;96330.29;;;2.07;100.00
50011;BME280;35899;50.352;19.390;2024-03-25T03:35:49;96337.65;;;2.09;100.00
50011;BME280;35899;50.352;19.390;2024-03-25T03:38:17;96334.09;;;2.11;100.00
50011;BME280;35899;50.352;19.390;2024-03-25T03:40:59;96337.21;;;2.13;100.00
50011;BME280;35899;50.352;19.390;2024-03-25T03:43:27;96336.96;;;2.14;100.00
50011;BME280;35899;50.352;19.390;2024-03-25T03:45:54;96334.39;;;2.15;100.00
50011;BME280;35899;50.352;19.390;2024-03-25T03:48:22;96334.21;;;2.15;100.00
50011;BME280;35899;50.352;19.390;2024-03-25T03:50:50;96334.53;;;2.12;100.00
50011;BME280;35899;50.352;19.390;2024-03-25T03:53:17;96332.55;;;2.09;100.00
50011;BME280;35899;50.352;19.390;2024-03-25T03:55:59;96331.23;;;2.05;100.00
50011;BME280;35899;50.352;19.390;2024-03-25T03:58:28;96336.03;;;2.02;100.00
50011;BME280;35899;50.352;19.390;2024-03-25T04:00:55;96339.48;;;1.99;100.00
50011;BME280;35899;50.352;19.390;2024-03-25T04:03:23;96335.91;;;1.95;100.00
50011;BME280;35899;50.352;19.390;2024-03-25T04:05:51;96334.84;;;1.93;100.00
50011;BME280;35899;50.352;19.390;2024-03-25T04:08:19;96337.11;;;1.92;100.00
50011;BME280;35899;50.352;19.390;2024-03-25T04:10:46;96335.11;;;1.92;100.00
50011;BME280;35899;50.352;19.390;2024-03-25T04:13:14;96338.75;;;1.93;100.00
50011;BME280;35899;50.352;19.390;2024-03-25T04:15:42;96335.56;;;1.96;100.00
50011;BME280;35899;50.352;19.390;2024-03-25T04:18:10;96334.71;;;1.99;100.00
50011;BME280;35899;50.352;19.390;2024-03-25T04:20:39;96330.15;;;2.01;100.00
50011;BME280;35899;50.352;19.390;2024-03-25T04:23:07;96330.85;;;2.03;100.00
50011;BME280;35899;50.352;19.390;2024-03-25T04:25:35;96326.96;;;2.05;100.00
50011;BME280;35899;50.352;19.390;2024-03-25T04:28:04;96331.19;;;2.09;100.00
50011;BME280;35899;50.352;19.390;2024-03-25T04:30:33;96330.84;;;2.12;100.00
50011;BME280;35899;50.352;19.390;2024-03-25T04:33:00;96332.89;;;2.14;100.00
50011;BME280;35899;50.352;19.390;2024-03-25T04:35:28;96331.85;;;2.17;100.00
50011;BME280;35899;50.352;19.390;2024-03-25T04:37:56;96335.77;;;2.20;100.00
50011;BME280;35899;50.352;19.390;2024-03-25T04:40:24;96335.95;;;2.23;100.00
50011;BME280;35899;50.352;19.390;2024-03-25T04:42:51;96338.41;;;2.27;100.00
50011;BME280;35899;50.352;19.390;2024-03-25T04:45:19;96335.04;;;2.32;100.00
50011;BME280;35899;50.352;19.390;2024-03-25T04:47:46;96337.23;;;2.38;100.00
50011;BME280;35899;50.352;19.390;2024-03-25T04:50:14;96338.31;;;2.43;100.00
50011;BME280;35899;50.352;19.390;2024-03-25T04:52:42;96335.52;;;2.49;100.00
50011;BME280;35899;50.352;19.390;2024-03-25T04:55:10;96340.63;;;2.57;100.00
50011;BME280;35899;50.352;19.390;2024-03-25T04:57:37;96335.67;;;2.66;100.00
50011;BME280;35899;50.352;19.390;2024-03-25T05:00:05;96341.36;;;2.72;100.00
50011;BME280;35899;50.352;19.390;2024-03-25T05:02:33;96340.17;;;2.78;100.00
50011;BME280;35899;50.352;19.390;2024-03-25T05:05:01;96341.63;;;2.82;100.00
50011;BME280;35899;50.352;19.390;2024-03-25T05:07:28;96344.75;;;2.84;100.00
50011;BME280;35899;50.352;19.390;2024-03-25T05:09:56;96344.16;;;2.85;100.00
50011;BME280;35899;50.352;19.390;2024-03-25T05:12:24;96345.35;;;2.85;100.00
50011;BME280;35899;50.352;19.390;2024-03-25T05:14:52;96345.98;;;2.86;100.00
50011;BME280;35899;50.352;19.390;2024-03-25T05:17:20;96348.59;;;2.85;100.00
50011;BME280;35899;50.352;19.390;2024-03-25T05:19:48;96348.09;;;2.85;100.00
50011;BME280;35899;50.352;19.390;2024-03-25T05:22:15;96346.13;;;2.86;100.00
50011;BME280;35899;50.352;19.390;2024-03-25T05:24:43;96347.56;;;2.87;100.00
50011;BME280;35899;50.352;19.390;2024-03-25T05:27:10;96351.29;;;2.88;100.00
50011;BME280;35899;50.352;19.390;2024-03-25T05:29:38;96352.23;;;2.90;100.00
50011;BME280;35899;50.352;19.390;2024-03-25T05:32:06;96353.02;;;2.90;100.00
50011;BME280;35899;50.352;19.390;2024-03-25T05:34:34;96354.52;;;2.91;100.00
50011;BME280;35899;50.352;19.390;2024-03-25T05:37:01;96357.73;;;2.92;100.00
50011;BME280;35899;50.352;19.390;2024-03-25T05:39:29;96362.00;;;2.92;100.00
50011;BME280;35899;50.352;19.390;2024-03-25T05:41:57;96365.56;;;2.89;100.00
50011;BME280;35899;50.352;19.390;2024-03-25T05:44:24;96367.09;;;2.87;100.00
50011;BME280;35899;50.352;19.390;2024-03-25T05:46:52;96371.80;;;2.83;100.00
50011;BME280;35899;50.352;19.390;2024-03-25T05:49:20;96371.41;;;2.81;100.00
50011;BME280;35899;50.352;19.390;2024-03-25T05:51:47;96374.61;;;2.79;100.00
50011;BME280;35899;50.352;19.390;2024-03-25T05:54:15;96376.49;;;2.79;100.00
50011;BME280;35899;50.352;19.390;2024-03-25T05:56:43;96377.11;;;2.80;100.00
50011;BME280;35899;50.352;19.390;2024-03-25T05:59:10;96378.44;;;2.83;100.00
50011;BME280;35899;50.352;19.390;2024-03-25T06:01:38;96379.23;;;2.86;100.00
50011;BME280;35899;50.352;19.390;2024-03-25T06:04:06;96381.85;;;2.88;100.00
50011;BME280;35899;50.352;19.390;2024-03-25T06:06:34;96379.76;;;2.92;100.00
50011;BME280;35899;50.352;19.390;2024-03-25T06:09:02;96378.69;;;2.95;100.00
50011;BME280;35899;50.352;19.390;2024-03-25T06:11:30;96383.33;;;3.00;100.00
50011;BME280;35899;50.352;19.390;2024-03-25T06:13:57;96385.45;;;3.04;100.00
50011;BME280;35899;50.352;19.390;2024-03-25T06:16:26;96385.77;;;3.10;100.00
50011;BME280;35899;50.352;19.390;2024-03-25T06:18:53;96384.26;;;3.18;100.00
50011;BME280;35899;50.352;19.390;2024-03-25T06:21:21;96385.14;;;3.22;100.00
50011;BME280;35899;50.352;19.390;2024-03-25T06:23:49;96387.83;;;3.28;100.00
50011;BME280;35899;50.352;19.390;2024-03-25T06:26:17;96389.98;;;3.32;100.00
50011;BME280;35899;50.352;19.390;2024-03-25T06:28:45;96390.92;;;3.31;100.00
50011;BME280;35899;50.352;19.390;2024-03-25T06:31:12;96391.00;;;3.29;100.00
50011;BME280;35899;50.352;19.390;2024-03-25T06:33:40;96392.95;;;3.31;100.00
50011;BME280;35899;50.352;19.390;2024-03-25T06:36:08;96392.51;;;3.35;100.00
50011;BME280;35899;50.352;19.390;2024-03-25T06:38:36;96395.88;;;3.41;100.00
50011;BME280;35899;50.352;19.390;2024-03-25T06:41:04;96399.79;;;3.49;100.00
50011;BME280;35899;50.352;19.390;2024-03-25T06:43:32;96401.09;;;3.58;100.00
50011;BME280;35899;50.352;19.390;2024-03-25T06:45:59;96402.06;;;3.64;100.00
50011;BME280;35899;50.352;19.390;2024-03-25T06:48:27;96400.05;;;3.69;100.00
50011;BME280;35899;50.352;19.390;2024-03-25T06:50:56;96404.54;;;3.71;100.00
50011;BME280;35899;50.352;19.390;2024-03-25T06:53:24;96408.20;;;3.75;100.00
50011;BME280;35899;50.352;19.390;2024-03-25T06:55:53;96408.25;;;3.82;100.00
50011;BME280;35899;50.352;19.390;2024-03-25T06:58:22;96409.95;;;3.87;100.00
50011;BME280;35899;50.352;19.390;2024-03-25T07:00:50;96410.40;;;3.90;100.00
50011;BME280;35899;50.352;19.390;2024-03-25T07:03:19;96414.34;;;3.90;100.00
50011;BME280;35899;50.352;19.390;2024-03-25T07:05:48;96414.08;;;3.91;100.00
50011;BME280;35899;50.352;19.390;2024-03-25T07:08:16;96416.25;;;3.90;100.00
50011;BME280;35899;50.352;19.390;2024-03-25T07:10:44;96418.09;;;3.88;100.00
50011;BME280;35899;50.352;19.390;2024-03-25T07:13:12;96418.05;;;3.89;100.00
50011;BME280;35899;50.352;19.390;2024-03-25T07:15:40;96419.67;;;3.93;100.00
50011;BME280;35899;50.352;19.390;2024-03-25T07:18:07;96421.16;;;3.94;100.00
50011;BME280;35899;50.352;19.390;2024-03-25T07:20:35;96420.58;;;4.00;100.00
50011;BME280;35899;50.352;19.390;2024-03-25T07:23:04;96417.50;;;4.07;100.00
50011;BME280;35899;50.352;19.390;2024-03-25T07:25:32;96424.10;;;4.13;100.00
50011;BME280;35899;50.352;19.390;2024-03-25T07:28:00;96419.67;;;4.20;100.00
50011;BME280;35899;50.352;19.390;2024-03-25T07:30:28;96420.60;;;4.27;100.00
50011;BME280;35899;50.352;19.390;2024-03-25T07:32:57;96419.13;;;4.46;100.00
50011;BME280;35899;50.352;19.390;2024-03-25T07:35:26;96420.11;;;4.69;100.00
50011;BME280;35899;50.352;19.390;2024-03-25T07:37:53;96418.02;;;4.91;100.00
50011;BME280;35899;50.352;19.390;2024-03-25T07:40:22;96425.02;;;5.29;100.00
50011;BME280;35899;50.352;19.390;2024-03-25T07:42:49;96423.16;;;5.71;100.00
50011;BME280;35899;50.352;19.390;2024-03-25T07:45:17;96425.88;;;6.00;100.00
50011;BME280;35899;50.352;19.390;2024-03-25T07:47:45;96428.71;;;6.01;100.00
50011;BME280;35899;50.352;19.390;2024-03-25T07:50:13;96430.42;;;5.82;100.00
50011;BME280;35899;50.352;19.390;2024-03-25T07:52:41;96431.89;;;5.67;100.00
50011;BME280;35899;50.352;19.390;2024-03-25T07:55:08;96430.13;;;5.63;100.00
50011;BME280;35899;50.352;19.390;2024-03-25T07:57:36;96432.14;;;5.56;100.00
50011;BME280;35899;50.352;19.390;2024-03-25T08:00:04;96436.73;;;5.43;100.00
50011;BME280;35899;50.352;19.390;2024-03-25T08:02:39;96436.86;;;5.29;100.00
50011;BME280;35899;50.352;19.390;2024-03-25T08:05:06;96439.05;;;5.20;100.00
50011;BME280;35899;50.352;19.390;2024-03-25T08:07:34;96437.88;;;5.13;100.00
50011;BME280;35899;50.352;19.390;2024-03-25T08:10:02;96449.73;;;5.03;100.00
50011;BME280;35899;50.352;19.390;2024-03-25T08:12:29;96448.67;;;4.91;100.00
50011;BME280;35899;50.352;19.390;2024-03-25T08:14:57;96450.70;;;4.79;100.00
50011;BME280;35899;50.352;19.390;2024-03-25T08:17:25;96451.54;;;4.75;100.00
50011;BME280;35899;50.352;19.390;2024-03-25T08:19:53;96450.54;;;4.72;100.00
50011;BME280;35899;50.352;19.390;2024-03-25T08:22:21;96451.85;;;4.73;100.00
50011;BME280;35899;50.352;19.390;2024-03-25T08:24:48;96454.09;;;4.75;100.00
50011;BME280;35899;50.352;19.390;2024-03-25T08:27:16;96454.54;;;4.76;100.00
50011;BME280;35899;50.352;19.390;2024-03-25T08:29:44;96451.33;;;4.76;100.00
50011;BME280;35899;50.352;19.390;2024-03-25T08:32:12;96457.81;;;4.71;100.00
50011;BME280;35899;50.352;19.390;2024-03-25T08:34:40;96458.63;;;4.72;100.00
50011;BME280;35899;50.352;19.390;2024-03-25T08:37:08;96460.55;;;4.71;100.00
50011;BME280;35899;50.352;19.390;2024-03-25T08:39:36;96461.39;;;4.71;100.00
50011;BME280;35899;50.352;19.390;2024-03-25T08:42:04;96464.33;;;4.73;100.00
50011;BME280;35899;50.352;19.390;2024-03-25T08:44:33;96470.89;;;4.72;100.00
50011;BME280;35899;50.352;19.390;2024-03-25T08:47:01;96477.67;;;4.68;100.00
50011;BME280;35899;50.352;19.390;2024-03-25T08:49:29;96477.38;;;4.63;100.00
50011;BME280;35899;50.352;19.390;2024-03-25T08:51:57;96482.43;;;4.66;100.00
50011;BME280;35899;50.352;19.390;2024-03-25T08:54:24;96485.45;;;4.80;100.00
50011;BME280;35899;50.352;19.390;2024-03-25T08:56:52;96490.88;;;4.88;100.00
50011;BME280;35899;50.352;19.390;2024-03-25T08:59:20;96492.74;;;4.91;100.00
50011;BME280;35899;50.352;19.390;2024-03-25T09:01:48;96494.54;;;5.02;100.00
50011;BME280;35899;50.352;19.390;2024-03-25T09:04:15;96495.83;;;5.13;100.00
50011;BME280;35899;50.352;19.390;2024-03-25T09:06:55;96492.64;;;5.24;100.00
50011;BME280;35899;50.352;19.390;2024-03-25T09:09:22;96493.73;;;5.40;100.00
50011;BME280;35899;50.352;19.390;2024-03-25T09:11:50;96488.41;;;5.59;100.00
50011;BME280;35899;50.352;19.390;2024-03-25T09:14:18;96492.45;;;5.83;100.00
50011;BME280;35899;50.352;19.390;2024-03-25T09:16:45;96494.80;;;6.10;100.00
50011;BME280;35899;50.352;19.390;2024-03-25T09:19:13;96499.11;;;6.40;100.00
50011;BME280;35899;50.352;19.390;2024-03-25T09:21:42;96496.95;;;6.59;100.00
50011;BME280;35899;50.352;19.390;2024-03-25T09:24:10;96496.98;;;6.52;100.00
50011;BME280;35899;50.352;19.390;2024-03-25T09:26:37;96493.66;;;6.43;100.00
50011;BME280;35899;50.352;19.390;2024-03-25T09:29:05;96495.81;;;6.49;100.00
50011;BME280;35899;50.352;19.390;2024-03-25T09:31:32;96495.71;;;6.71;100.00
50011;BME280;35899;50.352;19.390;2024-03-25T09:34:00;96492.23;;;6.87;100.00
50011;BME280;35899;50.352;19.390;2024-03-25T09:36:28;96491.68;;;6.96;100.00
50011;BME280;35899;50.352;19.390;2024-03-25T09:38:56;96488.63;;;6.86;100.00
50011;BME280;35899;50.352;19.390;2024-03-25T09:41:23;96491.10;;;6.73;100.00
50011;BME280;35899;50.352;19.390;2024-03-25T09:43:54;96487.27;;;6.62;100.00
50011;BME280;35899;50.352;19.390;2024-03-25T09:46:22;96487.58;;;6.53;100.00
50011;BME280;35899;50.352;19.390;2024-03-25T09:48:52;96483.95;;;6.52;100.00
50011;BME280;35899;50.352;19.390;2024-03-25T09:51:20;96480.94;;;6.46;100.00
50011;BME280;35899;50.352;19.390;2024-03-25T09:53:48;96481.36;;;6.42;100.00
50011;BME280;35899;50.352;19.390;2024-03-25T09:56:16;96479.98;;;6.40;100.00
50011;BME280;35899;50.352;19.390;2024-03-25T09:58:44;96483.98;;;6.26;100.00
50011;BME280;35899;50.352;19.390;2024-03-25T10:01:12;96488.09;;;6.15;100.00
50011;BME280;35899;50.352;19.390;2024-03-25T10:03:39;96494.41;;;6.09;100.00
50011;BME280;35899;50.352;19.390;2024-03-25T10:06:07;96490.48;;;6.01;100.00
50011;BME280;35899;50.352;19.390;2024-03-25T10:08:34;96499.87;;;5.90;100.00
50011;BME280;35899;50.352;19.390;2024-03-25T10:11:02;96504.27;;;5.77;100.00
50011;BME280;35899;50.352;19.390;2024-03-25T10:13:30;96501.39;;;5.72;100.00
50011;BME280;35899;50.352;19.390;2024-03-25T10:15:58;96496.23;;;5.88;100.00
50011;BME280;35899;50.352;19.390;2024-03-25T10:18:25;96497.59;;;6.91;100.00
50011;BME280;35899;50.352;19.390;2024-03-25T10:20:53;96499.13;;;8.01;100.00
50011;BME280;35899;50.352;19.390;2024-03-25T10:23:24;96491.09;;;9.00;100.00
50011;BME280;35899;50.352;19.390;2024-03-25T10:25:53;96486.19;;;10.06;100.00
50011;BME280;35899;50.352;19.390;2024-03-25T10:28:21;96486.63;;;10.07;100.00
50011;BME280;35899;50.352;19.390;2024-03-25T10:30:49;96506.59;;;9.62;100.00
50011;BME280;35899;50.352;19.390;2024-03-25T10:33:17;96523.92;;;8.77;99.45
50011;BME280;35899;50.352;19.390;2024-03-25T10:35:46;96520.58;;;7.57;97.57
50011;BME280;35899;50.352;19.390;2024-03-25T10:38:18;96525.54;;;6.51;98.04
50011;BME280;35899;50.352;19.390;2024-03-25T10:40:48;96525.40;;;5.77;99.34
50011;BME280;35899;50.352;19.390;2024-03-25T10:43:19;96524.39;;;5.38;100.00
50011;BME280;35899;50.352;19.390;2024-03-25T10:45:49;96526.36;;;5.37;100.00
50011;BME280;35899;50.352;19.390;2024-03-25T10:48:29;96520.39;;;6.23;100.00
50011;BME280;35899;50.352;19.390;2024-03-25T10:50:59;96515.65;;;7.79;100.00
50011;BME280;35899;50.352;19.390;2024-03-25T10:53:30;96511.16;;;9.19;100.00
50011;BME280;35899;50.352;19.390;2024-03-25T10:55:58;96509.75;;;10.44;98.82
50011;BME280;35899;50.352;19.390;2024-03-25T10:58:27;96505.51;;;11.66;95.91
50011;BME280;35899;50.352;19.390;2024-03-25T11:00:56;96509.77;;;12.50;91.83
50011;BME280;35899;50.352;19.390;2024-03-25T11:03:25;96508.44;;;12.02;90.17
50011;BME280;35899;50.352;19.390;2024-03-25T11:05:53;96515.30;;;11.04;89.94
50011;BME280;35899;50.352;19.390;2024-03-25T11:08:30;96507.33;;;10.35;91.73
50011;BME280;35899;50.352;19.390;2024-03-25T11:10:59;96507.05;;;9.59;92.28
50011;BME280;35899;50.352;19.390;2024-03-25T11:13:27;96506.89;;;9.47;92.63
50011;BME280;35899;50.352;19.390;2024-03-25T11:15:56;96507.94;;;9.37;93.29
50011;BME280;35899;50.352;19.390;2024-03-25T11:18:25;96511.34;;;9.02;95.03
50011;BME280;35899;50.352;19.390;2024-03-25T11:21:02;96518.45;;;8.56;95.81
50011;BME280;35899;50.352;19.390;2024-03-25T11:23:44;96519.89;;;8.04;96.90
50011;BME280;35899;50.352;19.390;2024-03-25T11:26:22;96528.31;;;7.55;98.34
50011;BME280;35899;50.352;19.390;2024-03-25T11:28:51;96535.94;;;7.11;99.58
50011;BME280;35899;50.352;19.390;2024-03-25T11:31:25;96536.90;;;6.69;99.69
50011;BME280;35899;50.352;19.390;2024-03-25T11:33:53;96535.33;;;6.42;100.00
50011;BME280;35899;50.352;19.390;2024-03-25T11:36:22;96534.89;;;6.30;100.00
50011;BME280;35899;50.352;19.390;2024-03-25T11:38:58;96532.77;;;6.42;100.00
50011;BME280;35899;50.352;19.390;2024-03-25T11:41:25;96530.19;;;6.76;100.00
50011;BME280;35899;50.352;19.390;2024-03-25T11:43:53;96529.65;;;7.78;99.67
50011;BME280;35899;50.352;19.390;2024-03-25T11:46:24;96523.89;;;10.59;94.93
50011;BME280;35899;50.352;19.390;2024-03-25T11:48:53;96525.36;;;12.20;90.72
50011;BME280;35899;50.352;19.390;2024-03-25T11:51:20;96519.32;;;13.29;87.43
50011;BME280;35899;50.352;19.390;2024-03-25T11:53:51;96523.19;;;12.84;89.10
50011;BME280;35899;50.352;19.390;2024-03-25T11:56:19;96527.24;;;12.30;90.17
50011;BME280;35899;50.352;19.390;2024-03-25T11:58:47;96528.90;;;12.55;87.11
50011;BME280;35899;50.352;19.390;2024-03-25T12:01:15;96533.02;;;12.47;86.73
50011;BME280;35899;50.352;19.390;2024-03-25T12:03:43;96531.30;;;11.76;87.51
50011;BME280;35899;50.352;19.390;2024-03-25T12:06:12;96530.52;;;11.05;88.47
50011;BME280;35899;50.352;19.390;2024-03-25T12:08:39;96537.12;;;10.46;89.39
50011;BME280;35899;50.352;19.390;2024-03-25T12:11:07;96538.92;;;9.98;90.44
50011;BME280;35899;50.352;19.390;2024-03-25T12:13:35;96540.66;;;9.40;92.15
50011;BME280;35899;50.352;19.390;2024-03-25T12:16:03;96542.52;;;8.80;93.90
50011;BME280;35899;50.352;19.390;2024-03-25T12:18:30;96547.72;;;8.32;96.27
50011;BME280;35899;50.352;19.390;2024-03-25T12:20:59;96558.77;;;7.68;96.46
50011;BME280;35899;50.352;19.390;2024-03-25T12:23:33;96560.69;;;6.82;96.47
50011;BME280;35899;50.352;19.390;2024-03-25T12:26:02;96565.23;;;6.14;98.06
50011;BME280;35899;50.352;19.390;2024-03-25T12:28:33;96555.33;;;5.73;99.34
50011;BME280;35899;50.352;19.390;2024-03-25T12:31:00;96559.80;;;5.75;100.00
50011;BME280;35899;50.352;19.390;2024-03-25T12:33:28;96558.10;;;5.80;100.00
50011;BME280;35899;50.352;19.390;2024-03-25T12:35:56;96563.06;;;5.78;100.00
50011;BME280;35899;50.352;19.390;2024-03-25T12:38:28;96565.20;;;5.65;100.00
50011;BME280;35899;50.352;19.390;2024-03-25T12:41:04;96566.58;;;5.48;100.00
50011;BME280;35899;50.352;19.390;2024-03-25T12:43:33;96565.92;;;5.33;100.00
50011;BME280;35899;50.352;19.390;2024-03-25T12:46:02;96557.94;;;5.56;100.00
50011;BME280;35899;50.352;19.390;2024-03-25T12:48:30;96552.33;;;8.54;99.78
50011;BME280;35899;50.352;19.390;2024-03-25T12:50:58;96546.39;;;11.78;96.55
50011;BME280;35899;50.352;19.390;2024-03-25T12:53:25;96540.58;;;14.38;90.56
50011;BME280;35899;50.352;19.390;2024-03-25T12:55:53;96541.72;;;16.27;85.10